sensor_id;sensor_type;location;lat;lon;timestamp;temperature;humidity
33023;DHT22;19390;51.460;5.710;2022-07-06T00:01:19;11.80;99.90
33023;DHT22;19390;51.460;5.710;2022-07-06T00:03:45;11.50;99.90
33023;DHT22;19390;51.460;5.710;2022-07-06T00:06:11;11.30;99.90
33023;DHT22;19390;51.460;5.710;2022-07-06T00:08:38;11.00;99.90
33023;DHT22;19390;51.460;5.710;2022-07-06T00:11:04;10.90;99.90
33023;DHT22;19390;51.460;5.710;2022-07-06T00:13:30;10.80;99.90
33023;DHT22;19390;51.460;5.710;2022-07-06T00:15:56;10.60;99.90
33023;DHT22;19390;51.460;5.710;2022-07-06T00:18:22;10.50;99.90
33023;DHT22;19390;51.460;5.710;2022-07-06T00:20:47;10.40;99.90
33023;DHT22;19390;51.460;5.710;2022-07-06T00:23:13;10.40;99.90
33023;DHT22;19390;51.460;5.710;2022-07-06T00:25:39;10.40;99.90
33023;DHT22;19390;51.460;5.710;2022-07-06T00:28:04;10.40;99.90
33023;DHT22;19390;51.460;5.710;2022-07-06T00:30:30;10.30;99.90
33023;DHT22;19390;51.460;5.710;2022-07-06T00:32:56;10.30;99.90
33023;DHT22;19390;51.460;5.710;2022-07-06T00:35:24;10.20;99.90
33023;DHT22;19390;51.460;5.710;2022-07-06T00:37:50;10.10;99.90
33023;DHT22;19390;51.460;5.710;2022-07-06T00:40:15;10.10;99.90
33023;DHT22;19390;51.460;5.710;2022-07-06T00:42:46;10.10;99.90
33023;DHT22;19390;51.460;5.710;2022-07-06T00:45:14;10.10;99.90
33023;DHT22;19390;51.460;5.710;2022-07-06T00:47:41;10.00;99.90
33023;DHT22;19390;51.460;5.710;2022-07-06T00:50:10;9.90;99.90
33023;DHT22;19390;51.460;5.710;2022-07-06T00:53:04;9.80;99.90
33023;DHT22;19390;51.460;5.710;2022-07-06T00:55:33;9.80;99.90
33023;DHT22;19390;51.460;5.710;2022-07-06T00:58:04;9.80;99.90
33023;DHT22;19390;51.460;5.710;2022-07-06T01:00:29;9.80;99.90
33023;DHT22;19390;51.460;5.710;2022-07-06T01:02:56;9.90;99.90
33023;DHT22;19390;51.460;5.710;2022-07-06T01:05:22;10.10;99.90
33023;DHT22;19390;51.460;5.710;2022-07-06T01:07:51;10.40;99.90
33023;DHT22;19390;51.460;5.710;2022-07-06T01:10:19;10.30;99.90
33023;DHT22;19390;51.460;5.710;2022-07-06T01:12:46;10.40;99.90
33023;DHT22;19390;51.460;5.710;2022-07-06T01:15:17;10.20;99.90
33023;DHT22;19390;51.460;5.710;2022-07-06T01:17:43;10.00;99.90
33023;DHT22;19390;51.460;5.710;2022-07-06T01:20:23;10.00;99.90
33023;DHT22;19390;51.460;5.710;2022-07-06T01:22:51;9.90;99.90
33023;DHT22;19390;51.460;5.710;2022-07-06T01:25:19;9.80;99.90
33023;DHT22;19390;51.460;5.710;2022-07-06T01:27:45;9.70;99.90
33023;DHT22;19390;51.460;5.710;2022-07-06T01:30:14;9.70;99.90
33023;DHT22;19390;51.460;5.710;2022-07-06T01:32:41;9.80;99.90
33023;DHT22;19390;51.460;5.710;2022-07-06T01:35:08;10.00;99.90
33023;DHT22;19390;51.460;5.710;2022-07-06T01:37:35;10.00;99.90
33023;DHT22;19390;51.460;5.710;2022-07-06T01:40:05;9.70;99.90
33023;DHT22;19390;51.460;5.710;2022-07-06T01:42:31;9.50;99.90
33023;DHT22;19390;51.460;5.710;2022-07-06T01:44:57;9.40;99.90
33023;DHT22;19390;51.460;5.710;2022-07-06T01:47:23;9.40;99.90
33023;DHT22;19390;51.460;5.710;2022-07-06T01:49:49;9.40;99.90
33023;DHT22;19390;51.460;5.710;2022-07-06T01:52:15;9.40;99.90
33023;DHT22;19390;51.460;5.710;2022-07-06T01:54:40;9.50;99.90
33023;DHT22;19390;51.460;5.710;2022-07-06T01:57:06;9.70;99.90
33023;DHT22;19390;51.460;5.710;2022-07-06T01:59:32;9.70;99.90
33023;DHT22;19390;51.460;5.710;2022-07-06T02:01:58;9.50;99.90
33023;DHT22;19390;51.460;5.710;2022-07-06T02:04:23;9.40;99.90
33023;DHT22;19390;51.460;5.710;2022-07-06T02:06:49;9.40;99.90
33023;DHT22;19390;51.460;5.710;2022-07-06T02:09:15;9.20;99.90
33023;DHT22;19390;51.460;5.710;2022-07-06T02:11:42;9.10;99.90
33023;DHT22;19390;51.460;5.710;2022-07-06T02:14:07;9.00;99.90
33023;DHT22;19390;51.460;5.710;2022-07-06T02:16:33;8.90;99.90
33023;DHT22;19390;51.460;5.710;2022-07-06T02:18:59;8.90;99.90
33023;DHT22;19390;51.460;5.710;2022-07-06T02:21:24;9.00;99.90
33023;DHT22;19390;51.460;5.710;2022-07-06T02:23:50;9.00;99.90
33023;DHT22;19390;51.460;5.710;2022-07-06T02:26:16;9.00;99.90
33023;DHT22;19390;51.460;5.710;2022-07-06T02:28:41;9.00;99.90
33023;DHT22;19390;51.460;5.710;2022-07-06T02:31:07;9.00;99.90
33023;DHT22;19390;51.460;5.710;2022-07-06T02:33:32;9.00;99.90
33023;DHT22;19390;51.460;5.710;2022-07-06T02:35:58;9.00;99.90
33023;DHT22;19390;51.460;5.710;2022-07-06T02:38:23;8.90;99.90
33023;DHT22;19390;51.460;5.710;2022-07-06T02:40:49;8.70;99.90
33023;DHT22;19390;51.460;5.710;2022-07-06T02:43:15;8.60;99.90
33023;DHT22;19390;51.460;5.710;2022-07-06T02:45:40;8.60;99.90
33023;DHT22;19390;51.460;5.710;2022-07-06T02:48:06;8.60;99.90
33023;DHT22;19390;51.460;5.710;2022-07-06T02:50:32;8.50;99.90
33023;DHT22;19390;51.460;5.710;2022-07-06T02:52:57;8.50;99.90
33023;DHT22;19390;51.460;5.710;2022-07-06T02:55:24;8.40;99.90
33023;DHT22;19390;51.460;5.710;2022-07-06T02:57:49;8.30;99.90
33023;DHT22;19390;51.460;5.710;2022-07-06T03:00:15;8.40;99.90
33023;DHT22;19390;51.460;5.710;2022-07-06T03:02:42;8.30;99.90
33023;DHT22;19390;51.460;5.710;2022-07-06T03:05:07;8.30;99.90
33023;DHT22;19390;51.460;5.710;2022-07-06T03:07:33;8.30;99.90
33023;DHT22;19390;51.460;5.710;2022-07-06T03:09:59;8.40;99.90
33023;DHT22;19390;51.460;5.710;2022-07-06T03:12:24;8.40;99.90
33023;DHT22;19390;51.460;5.710;2022-07-06T03:14:50;8.40;99.90
33023;DHT22;19390;51.460;5.710;2022-07-06T03:17:16;8.20;99.90
33023;DHT22;19390;51.460;5.710;2022-07-06T03:19:41;8.20;99.90
33023;DHT22;19390;51.460;5.710;2022-07-06T03:22:07;8.20;99.90
33023;DHT22;19390;51.460;5.710;2022-07-06T03:24:33;8.10;99.90
33023;DHT22;19390;51.460;5.710;2022-07-06T03:26:58;8.20;99.90
33023;DHT22;19390;51.460;5.710;2022-07-06T03:29:24;8.20;99.90
33023;DHT22;19390;51.460;5.710;2022-07-06T03:31:50;8.30;99.90
33023;DHT22;19390;51.460;5.710;2022-07-06T03:34:15;8.30;99.90
33023;DHT22;19390;51.460;5.710;2022-07-06T03:36:41;8.50;99.90
33023;DHT22;19390;51.460;5.710;2022-07-06T03:39:07;8.40;99.90
33023;DHT22;19390;51.460;5.710;2022-07-06T03:41:32;8.40;99.90
33023;DHT22;19390;51.460;5.710;2022-07-06T03:43:58;8.30;99.90
33023;DHT22;19390;51.460;5.710;2022-07-06T03:46:25;8.30;99.90
33023;DHT22;19390;51.460;5.710;2022-07-06T03:48:50;8.40;99.90
33023;DHT22;19390;51.460;5.710;2022-07-06T03:51:16;8.60;99.90
33023;DHT22;19390;51.460;5.710;2022-07-06T03:53:42;8.70;99.90
33023;DHT22;19390;51.460;5.710;2022-07-06T03:56:07;8.90;99.90
33023;DHT22;19390;51.460;5.710;2022-07-06T03:58:52;9.20;99.90
33023;DHT22;19390;51.460;5.710;2022-07-06T04:01:17;9.30;99.90
33023;DHT22;19390;51.460;5.710;2022-07-06T04:03:43;9.50;99.90
33023;DHT22;19390;51.460;5.710;2022-07-06T04:06:10;9.50;99.90
33023;DHT22;19390;51.460;5.710;2022-07-06T04:08:36;9.50;99.90
33023;DHT22;19390;51.460;5.710;2022-07-06T04:11:02;9.60;99.90
33023;DHT22;19390;51.460;5.710;2022-07-06T04:13:28;9.60;99.90
33023;DHT22;19390;51.460;5.710;2022-07-06T04:15:54;9.60;99.90
33023;DHT22;19390;51.460;5.710;2022-07-06T04:18:19;9.80;99.90
33023;DHT22;19390;51.460;5.710;2022-07-06T04:20:45;10.10;99.90
33023;DHT22;19390;51.460;5.710;2022-07-06T04:23:10;10.30;99.90
33023;DHT22;19390;51.460;5.710;2022-07-06T04:25:36;10.30;99.90
33023;DHT22;19390;51.460;5.710;2022-07-06T04:28:02;10.40;99.90
33023;DHT22;19390;51.460;5.710;2022-07-06T04:30:27;10.50;99.90
33023;DHT22;19390;51.460;5.710;2022-07-06T04:32:53;10.50;99.90
33023;DHT22;19390;51.460;5.710;2022-07-06T04:35:20;10.60;99.90
33023;DHT22;19390;51.460;5.710;2022-07-06T04:37:46;10.60;99.90
33023;DHT22;19390;51.460;5.710;2022-07-06T04:40:12;10.60;99.90
33023;DHT22;19390;51.460;5.710;2022-07-06T04:42:38;10.60;99.90
33023;DHT22;19390;51.460;5.710;2022-07-06T04:45:04;10.70;99.90
33023;DHT22;19390;51.460;5.710;2022-07-06T04:47:31;10.80;99.90
33023;DHT22;19390;51.460;5.710;2022-07-06T04:49:57;10.90;99.90
33023;DHT22;19390;51.460;5.710;2022-07-06T04:52:23;10.90;99.90
33023;DHT22;19390;51.460;5.710;2022-07-06T04:54:48;11.00;99.90
33023;DHT22;19390;51.460;5.710;2022-07-06T04:57:14;11.00;99.90
33023;DHT22;19390;51.460;5.710;2022-07-06T04:59:40;11.40;99.90
33023;DHT22;19390;51.460;5.710;2022-07-06T05:02:06;11.20;99.90
33023;DHT22;19390;51.460;5.710;2022-07-06T05:04:31;11.30;99.90
33023;DHT22;19390;51.460;5.710;2022-07-06T05:06:57;11.30;99.90
33023;DHT22;19390;51.460;5.710;2022-07-06T05:09:22;11.30;99.90
33023;DHT22;19390;51.460;5.710;2022-07-06T05:11:48;11.70;99.90
33023;DHT22;19390;51.460;5.710;2022-07-06T05:14:14;13.00;99.90
33023;DHT22;19390;51.460;5.710;2022-07-06T05:16:39;15.50;99.90
33023;DHT22;19390;51.460;5.710;2022-07-06T05:19:05;16.90;99.90
33023;DHT22;19390;51.460;5.710;2022-07-06T05:21:30;18.60;99.90
33023;DHT22;19390;51.460;5.710;2022-07-06T05:23:56;17.50;99.90
33023;DHT22;19390;51.460;5.710;2022-07-06T05:26:22;19.40;99.90
33023;DHT22;19390;51.460;5.710;2022-07-06T05:28:47;17.60;99.90
33023;DHT22;19390;51.460;5.710;2022-07-06T05:31:13;17.90;99.90
33023;DHT22;19390;51.460;5.710;2022-07-06T05:33:38;20.10;99.90
33023;DHT22;19390;51.460;5.710;2022-07-06T05:36:04;21.30;99.90
33023;DHT22;19390;51.460;5.710;2022-07-06T05:38:30;22.80;99.90
33023;DHT22;19390;51.460;5.710;2022-07-06T05:40:56;23.60;99.90
33023;DHT22;19390;51.460;5.710;2022-07-06T05:43:21;23.00;99.90
33023;DHT22;19390;51.460;5.710;2022-07-06T05:45:47;22.60;99.90
33023;DHT22;19390;51.460;5.710;2022-07-06T05:48:13;22.80;99.90
33023;DHT22;19390;51.460;5.710;2022-07-06T05:50:57;20.20;99.90
33023;DHT22;19390;51.460;5.710;2022-07-06T05:53:22;17.60;99.90
33023;DHT22;19390;51.460;5.710;2022-07-06T05:55:48;16.90;99.90
33023;DHT22;19390;51.460;5.710;2022-07-06T05:58:14;16.60;99.90
33023;DHT22;19390;51.460;5.710;2022-07-06T06:00:40;16.20;99.90
33023;DHT22;19390;51.460;5.710;2022-07-06T06:03:05;15.80;99.90
33023;DHT22;19390;51.460;5.710;2022-07-06T06:05:31;15.70;99.90
33023;DHT22;19390;51.460;5.710;2022-07-06T06:07:56;15.60;99.90
33023;DHT22;19390;51.460;5.710;2022-07-06T06:10:22;15.90;99.90
33023;DHT22;19390;51.460;5.710;2022-07-06T06:12:48;18.80;99.90
33023;DHT22;19390;51.460;5.710;2022-07-06T06:15:14;21.60;99.90
33023;DHT22;19390;51.460;5.710;2022-07-06T06:17:40;19.50;99.90
33023;DHT22;19390;51.460;5.710;2022-07-06T06:20:08;18.40;99.90
33023;DHT22;19390;51.460;5.710;2022-07-06T06:22:54;17.90;99.90
33023;DHT22;19390;51.460;5.710;2022-07-06T06:27:59;17.10;99.90
33023;DHT22;19390;51.460;5.710;2022-07-06T06:30:24;16.70;99.90
33023;DHT22;19390;51.460;5.710;2022-07-06T06:32:50;17.40;99.90
33023;DHT22;19390;51.460;5.710;2022-07-06T06:35:16;18.90;99.90
33023;DHT22;19390;51.460;5.710;2022-07-06T06:37:41;20.70;99.90
33023;DHT22;19390;51.460;5.710;2022-07-06T06:40:08;20.00;99.90
33023;DHT22;19390;51.460;5.710;2022-07-06T06:42:36;20.10;99.90
33023;DHT22;19390;51.460;5.710;2022-07-06T06:45:02;19.20;99.90
33023;DHT22;19390;51.460;5.710;2022-07-06T06:47:28;18.20;99.90
33023;DHT22;19390;51.460;5.710;2022-07-06T06:49:53;17.40;99.90
33023;DHT22;19390;51.460;5.710;2022-07-06T06:52:19;17.80;99.90
33023;DHT22;19390;51.460;5.710;2022-07-06T06:54:45;20.00;99.90
33023;DHT22;19390;51.460;5.710;2022-07-06T06:57:10;22.20;99.90
33023;DHT22;19390;51.460;5.710;2022-07-06T06:59:36;22.90;99.90
33023;DHT22;19390;51.460;5.710;2022-07-06T07:02:02;24.20;99.90
33023;DHT22;19390;51.460;5.710;2022-07-06T07:04:27;25.50;99.90
33023;DHT22;19390;51.460;5.710;2022-07-06T07:06:54;25.70;99.90
33023;DHT22;19390;51.460;5.710;2022-07-06T07:09:20;25.80;99.90
33023;DHT22;19390;51.460;5.710;2022-07-06T07:11:46;26.00;99.90
33023;DHT22;19390;51.460;5.710;2022-07-06T07:14:11;26.70;99.90
33023;DHT22;19390;51.460;5.710;2022-07-06T07:16:37;26.80;99.90
33023;DHT22;19390;51.460;5.710;2022-07-06T07:19:02;25.80;99.90
33023;DHT22;19390;51.460;5.710;2022-07-06T07:21:28;26.90;99.90
33023;DHT22;19390;51.460;5.710;2022-07-06T07:23:53;28.20;99.90
33023;DHT22;19390;51.460;5.710;2022-07-06T07:26:19;27.00;99.90
33023;DHT22;19390;51.460;5.710;2022-07-06T07:28:44;25.30;99.90
33023;DHT22;19390;51.460;5.710;2022-07-06T07:31:10;23.90;99.90
33023;DHT22;19390;51.460;5.710;2022-07-06T07:33:36;22.80;99.90
33023;DHT22;19390;51.460;5.710;2022-07-06T07:36:01;21.70;99.90
33023;DHT22;19390;51.460;5.710;2022-07-06T07:38:27;21.30;99.90
33023;DHT22;19390;51.460;5.710;2022-07-06T07:40:55;21.20;99.90
33023;DHT22;19390;51.460;5.710;2022-07-06T07:43:21;22.60;99.90
33023;DHT22;19390;51.460;5.710;2022-07-06T07:45:48;21.90;99.90
33023;DHT22;19390;51.460;5.710;2022-07-06T07:48:14;21.70;99.90
33023;DHT22;19390;51.460;5.710;2022-07-06T07:50:41;22.90;99.90
33023;DHT22;19390;51.460;5.710;2022-07-06T07:53:06;27.30;99.90
33023;DHT22;19390;51.460;5.710;2022-07-06T07:55:32;28.10;99.90
33023;DHT22;19390;51.460;5.710;2022-07-06T07:57:57;27.50;99.90
33023;DHT22;19390;51.460;5.710;2022-07-06T08:00:23;26.00;99.90
33023;DHT22;19390;51.460;5.710;2022-07-06T08:02:49;26.60;99.90
33023;DHT22;19390;51.460;5.710;2022-07-06T08:05:15;27.70;99.90
33023;DHT22;19390;51.460;5.710;2022-07-06T08:07:44;29.40;99.90
33023;DHT22;19390;51.460;5.710;2022-07-06T08:10:10;29.10;99.90
33023;DHT22;19390;51.460;5.710;2022-07-06T08:12:36;27.10;99.90
33023;DHT22;19390;51.460;5.710;2022-07-06T08:15:03;25.90;99.90
33023;DHT22;19390;51.460;5.710;2022-07-06T08:17:28;28.10;99.90
33023;DHT22;19390;51.460;5.710;2022-07-06T08:19:55;29.50;99.90
33023;DHT22;19390;51.460;5.710;2022-07-06T08:22:20;30.00;99.90
33023;DHT22;19390;51.460;5.710;2022-07-06T08:24:46;29.60;99.90
33023;DHT22;19390;51.460;5.710;2022-07-06T08:27:11;29.50;99.90
33023;DHT22;19390;51.460;5.710;2022-07-06T08:29:38;29.40;99.90
33023;DHT22;19390;51.460;5.710;2022-07-06T08:32:03;30.70;99.90
33023;DHT22;19390;51.460;5.710;2022-07-06T08:34:29;29.40;99.90
33023;DHT22;19390;51.460;5.710;2022-07-06T08:36:55;31.20;99.90
33023;DHT22;19390;51.460;5.710;2022-07-06T08:39:20;31.50;99.90
33023;DHT22;19390;51.460;5.710;2022-07-06T08:41:47;30.60;99.70
33023;DHT22;19390;51.460;5.710;2022-07-06T08:44:14;30.10;99.90
33023;DHT22;19390;51.460;5.710;2022-07-06T08:46:41;28.90;99.90
33023;DHT22;19390;51.460;5.710;2022-07-06T08:49:07;28.70;99.90
33023;DHT22;19390;51.460;5.710;2022-07-06T08:51:35;29.90;99.90
33023;DHT22;19390;51.460;5.710;2022-07-06T08:54:02;26.20;99.90
33023;DHT22;19390;51.460;5.710;2022-07-06T08:56:28;27.80;99.90
33023;DHT22;19390;51.460;5.710;2022-07-06T08:58:54;25.20;99.90
33023;DHT22;19390;51.460;5.710;2022-07-06T09:01:20;27.30;99.90
33023;DHT22;19390;51.460;5.710;2022-07-06T09:03:49;29.30;99.90
33023;DHT22;19390;51.460;5.710;2022-07-06T09:06:16;29.60;99.90
33023;DHT22;19390;51.460;5.710;2022-07-06T09:08:44;30.30;99.90
33023;DHT22;19390;51.460;5.710;2022-07-06T09:11:10;31.40;99.90
33023;DHT22;19390;51.460;5.710;2022-07-06T09:13:35;27.40;99.90
33023;DHT22;19390;51.460;5.710;2022-07-06T09:16:12;25.90;99.90
33023;DHT22;19390;51.460;5.710;2022-07-06T09:18:38;25.30;99.90
33023;DHT22;19390;51.460;5.710;2022-07-06T09:21:05;23.70;99.90
33023;DHT22;19390;51.460;5.710;2022-07-06T09:23:31;24.40;99.90
33023;DHT22;19390;51.460;5.710;2022-07-06T09:25:57;26.00;99.90
33023;DHT22;19390;51.460;5.710;2022-07-06T09:28:23;26.20;99.90
33023;DHT22;19390;51.460;5.710;2022-07-06T09:30:48;27.60;99.90
33023;DHT22;19390;51.460;5.710;2022-07-06T09:33:17;26.70;99.90
33023;DHT22;19390;51.460;5.710;2022-07-06T09:35:43;28.30;99.90
33023;DHT22;19390;51.460;5.710;2022-07-06T09:38:14;26.80;99.90
33023;DHT22;19390;51.460;5.710;2022-07-06T09:40:42;24.90;99.90
33023;DHT22;19390;51.460;5.710;2022-07-06T09:45:40;24.50;99.90
33023;DHT22;19390;51.460;5.710;2022-07-06T09:48:14;26.30;99.90
33023;DHT22;19390;51.460;5.710;2022-07-06T09:50:45;29.40;99.90
33023;DHT22;19390;51.460;5.710;2022-07-06T09:53:13;31.20;99.90
33023;DHT22;19390;51.460;5.710;2022-07-06T09:55:46;28.50;99.50
33023;DHT22;19390;51.460;5.710;2022-07-06T09:58:13;25.30;99.90
33023;DHT22;19390;51.460;5.710;2022-07-06T10:00:40;23.70;99.90
33023;DHT22;19390;51.460;5.710;2022-07-06T10:03:07;23.80;99.90
33023;DHT22;19390;51.460;5.710;2022-07-06T10:05:34;24.30;99.90
33023;DHT22;19390;51.460;5.710;2022-07-06T10:08:01;23.30;99.90
33023;DHT22;19390;51.460;5.710;2022-07-06T10:10:29;25.90;99.90
33023;DHT22;19390;51.460;5.710;2022-07-06T10:12:59;26.40;99.90
33023;DHT22;19390;51.460;5.710;2022-07-06T10:15:29;25.50;99.90
33023;DHT22;19390;51.460;5.710;2022-07-06T10:17:57;24.50;99.90
33023;DHT22;19390;51.460;5.710;2022-07-06T10:20:25;23.70;99.90
33023;DHT22;19390;51.460;5.710;2022-07-06T10:22:54;23.00;99.90
33023;DHT22;19390;51.460;5.710;2022-07-06T10:25:23;23.00;99.90
33023;DHT22;19390;51.460;5.710;2022-07-06T10:27:49;23.50;99.90
33023;DHT22;19390;51.460;5.710;2022-07-06T10:30:15;23.10;99.90
33023;DHT22;19390;51.460;5.710;2022-07-06T10:32:43;23.20;99.90
33023;DHT22;19390;51.460;5.710;2022-07-06T10:35:10;24.10;99.90
33023;DHT22;19390;51.460;5.710;2022-07-06T10:37:35;24.80;99.90
33023;DHT22;19390;51.460;5.710;2022-07-06T10:40:01;25.10;99.90
33023;DHT22;19390;51.460;5.710;2022-07-06T10:42:59;25.50;99.90
33023;DHT22;19390;51.460;5.710;2022-07-06T10:55:39;23.50;99.90
33023;DHT22;19390;51.460;5.710;2022-07-06T10:58:06;23.90;99.90
33023;DHT22;19390;51.460;5.710;2022-07-06T11:00:53;23.50;99.90
33023;DHT22;19390;51.460;5.710;2022-07-06T11:06:10;24.00;99.90
33023;DHT22;19390;51.460;5.710;2022-07-06T11:08:56;23.70;99.90
33023;DHT22;19390;51.460;5.710;2022-07-06T11:11:37;23.60;99.90
33023;DHT22;19390;51.460;5.710;2022-07-06T11:16:38;24.20;99.90
33023;DHT22;19390;51.460;5.710;2022-07-06T11:19:09;24.00;99.90
33023;DHT22;19390;51.460;5.710;2022-07-06T11:22:08;24.00;99.90
33023;DHT22;19390;51.460;5.710;2022-07-06T11:24:29;24.60;99.90
33023;DHT22;19390;51.460;5.710;2022-07-06T11:26:57;24.90;99.90
33023;DHT22;19390;51.460;5.710;2022-07-06T11:29:24;24.20;99.90
33023;DHT22;19390;51.460;5.710;2022-07-06T11:31:58;24.30;99.90
33023;DHT22;19390;51.460;5.710;2022-07-06T11:34:34;25.40;99.90
33023;DHT22;19390;51.460;5.710;2022-07-06T11:37:04;24.70;99.90
33023;DHT22;19390;51.460;5.710;2022-07-06T11:39:32;25.10;99.90
33023;DHT22;19390;51.460;5.710;2022-07-06T11:41:59;23.90;99.90
33023;DHT22;19390;51.460;5.710;2022-07-06T11:44:26;23.90;99.90
33023;DHT22;19390;51.460;5.710;2022-07-06T11:46:52;24.50;99.90
33023;DHT22;19390;51.460;5.710;2022-07-06T11:49:20;24.60;99.90
33023;DHT22;19390;51.460;5.710;2022-07-06T11:51:46;24.40;99.90
33023;DHT22;19390;51.460;5.710;2022-07-06T11:54:17;23.90;99.90
33023;DHT22;19390;51.460;5.710;2022-07-06T11:56:50;25.70;99.90
33023;DHT22;19390;51.460;5.710;2022-07-06T11:59:24;26.30;99.90
33023;DHT22;19390;51.460;5.710;2022-07-06T12:01:57;27.20;99.90
33023;DHT22;19390;51.460;5.710;2022-07-06T12:04:24;27.20;99.90
33023;DHT22;19390;51.460;5.710;2022-07-06T12:06:50;27.40;99.90
33023;DHT22;19390;51.460;5.710;2022-07-06T12:09:16;28.60;98.60
33023;DHT22;19390;51.460;5.710;2022-07-06T12:11:45;28.90;97.90
33023;DHT22;19390;51.460;5.710;2022-07-06T12:14:18;27.50;98.00
33023;DHT22;19390;51.460;5.710;2022-07-06T12:16:44;27.60;97.20
33023;DHT22;19390;51.460;5.710;2022-07-06T12:19:10;28.50;96.90
33023;DHT22;19390;51.460;5.710;2022-07-06T12:21:46;28.70;97.70
33023;DHT22;19390;51.460;5.710;2022-07-06T12:24:22;29.30;96.60
33023;DHT22;19390;51.460;5.710;2022-07-06T12:26:49;29.80;96.70
33023;DHT22;19390;51.460;5.710;2022-07-06T12:29:14;29.00;97.00
33023;DHT22;19390;51.460;5.710;2022-07-06T12:36:56;29.00;96.40
33023;DHT22;19390;51.460;5.710;2022-07-06T12:39:27;28.30;96.80
33023;DHT22;19390;51.460;5.710;2022-07-06T12:41:55;29.40;95.90
33023;DHT22;19390;51.460;5.710;2022-07-06T12:44:23;29.60;95.20
33023;DHT22;19390;51.460;5.710;2022-07-06T12:46:50;30.80;95.10
33023;DHT22;19390;51.460;5.710;2022-07-06T12:49:23;29.90;94.10
33023;DHT22;19390;51.460;5.710;2022-07-06T12:51:56;27.80;96.10
33023;DHT22;19390;51.460;5.710;2022-07-06T12:54:24;29.20;94.90
33023;DHT22;19390;51.460;5.710;2022-07-06T12:59:25;29.10;95.00
33023;DHT22;19390;51.460;5.710;2022-07-06T13:01:52;27.60;95.30
33023;DHT22;19390;51.460;5.710;2022-07-06T13:04:21;27.40;95.90
33023;DHT22;19390;51.460;5.710;2022-07-06T13:06:47;28.00;94.90
33023;DHT22;19390;51.460;5.710;2022-07-06T13:09:13;27.30;96.00
33023;DHT22;19390;51.460;5.710;2022-07-06T13:11:40;27.80;95.70
33023;DHT22;19390;51.460;5.710;2022-07-06T13:14:06;28.60;96.10
33023;DHT22;19390;51.460;5.710;2022-07-06T13:16:31;28.50;94.60
33023;DHT22;19390;51.460;5.710;2022-07-06T13:19:00;27.70;95.80
33023;DHT22;19390;51.460;5.710;2022-07-06T13:21:26;28.90;95.30
33023;DHT22;19390;51.460;5.710;2022-07-06T13:23:51;28.20;95.30
33023;DHT22;19390;51.460;5.710;2022-07-06T13:26:17;29.30;95.40
33023;DHT22;19390;51.460;5.710;2022-07-06T13:28:43;28.90;95.00
33023;DHT22;19390;51.460;5.710;2022-07-06T13:31:08;27.60;96.60
33023;DHT22;19390;51.460;5.710;2022-07-06T13:33:34;28.60;95.50
33023;DHT22;19390;51.460;5.710;2022-07-06T13:36:00;28.20;95.60
33023;DHT22;19390;51.460;5.710;2022-07-06T13:38:26;25.50;95.60
33023;DHT22;19390;51.460;5.710;2022-07-06T13:40:52;25.70;96.40
33023;DHT22;19390;51.460;5.710;2022-07-06T13:43:18;25.20;96.90
33023;DHT22;19390;51.460;5.710;2022-07-06T13:45:45;23.70;98.50
33023;DHT22;19390;51.460;5.710;2022-07-06T13:48:10;24.80;99.00
33023;DHT22;19390;51.460;5.710;2022-07-06T13:50:36;25.40;98.40
33023;DHT22;19390;51.460;5.710;2022-07-06T13:53:02;25.80;97.10
33023;DHT22;19390;51.460;5.710;2022-07-06T13:55:28;26.20;96.90
33023;DHT22;19390;51.460;5.710;2022-07-06T13:57:54;26.30;96.80
33023;DHT22;19390;51.460;5.710;2022-07-06T14:00:20;26.00;97.80
33023;DHT22;19390;51.460;5.710;2022-07-06T14:02:46;24.90;99.00
33023;DHT22;19390;51.460;5.710;2022-07-06T14:05:11;24.90;98.00
33023;DHT22;19390;51.460;5.710;2022-07-06T14:07:37;25.60;98.60
33023;DHT22;19390;51.460;5.710;2022-07-06T14:10:03;25.90;97.50
33023;DHT22;19390;51.460;5.710;2022-07-06T14:12:29;25.90;97.50
33023;DHT22;19390;51.460;5.710;2022-07-06T14:14:54;26.30;98.30
33023;DHT22;19390;51.460;5.710;2022-07-06T14:17:20;26.20;98.20
33023;DHT22;19390;51.460;5.710;2022-07-06T14:19:45;25.10;98.70
33023;DHT22;19390;51.460;5.710;2022-07-06T14:22:11;25.70;98.50
33023;DHT22;19390;51.460;5.710;2022-07-06T14:24:37;24.60;99.00
33023;DHT22;19390;51.460;5.710;2022-07-06T14:27:02;24.90;99.60
33023;DHT22;19390;51.460;5.710;2022-07-06T14:29:28;25.70;99.90
33023;DHT22;19390;51.460;5.710;2022-07-06T14:31:54;25.60;98.10
33023;DHT22;19390;51.460;5.710;2022-07-06T14:34:19;25.30;98.40
33023;DHT22;19390;51.460;5.710;2022-07-06T14:36:45;24.80;99.10
33023;DHT22;19390;51.460;5.710;2022-07-06T14:39:10;25.50;99.60
33023;DHT22;19390;51.460;5.710;2022-07-06T14:41:38;25.70;99.30
33023;DHT22;19390;51.460;5.710;2022-07-06T14:44:04;25.50;99.00
33023;DHT22;19390;51.460;5.710;2022-07-06T14:46:30;25.50;99.70
33023;DHT22;19390;51.460;5.710;2022-07-06T14:48:56;25.20;99.20
33023;DHT22;19390;51.460;5.710;2022-07-06T14:51:22;25.10;98.90
33023;DHT22;19390;51.460;5.710;2022-07-06T14:53:48;25.30;98.40
33023;DHT22;19390;51.460;5.710;2022-07-06T14:56:14;26.00;98.50
33023;DHT22;19390;51.460;5.710;2022-07-06T14:58:39;24.20;99.90
33023;DHT22;19390;51.460;5.710;2022-07-06T15:01:05;24.80;99.90
33023;DHT22;19390;51.460;5.710;2022-07-06T15:03:31;24.80;99.90
33023;DHT22;19390;51.460;5.710;2022-07-06T15:05:57;25.70;99.90
33023;DHT22;19390;51.460;5.710;2022-07-06T15:08:23;24.90;99.90
33023;DHT22;19390;51.460;5.710;2022-07-06T15:10:48;24.40;99.90
33023;DHT22;19390;51.460;5.710;2022-07-06T15:13:14;24.40;99.90
33023;DHT22;19390;51.460;5.710;2022-07-06T15:15:40;24.10;99.90
33023;DHT22;19390;51.460;5.710;2022-07-06T15:18:06;24.30;99.90
33023;DHT22;19390;51.460;5.710;2022-07-06T15:20:31;24.50;99.90
33023;DHT22;19390;51.460;5.710;2022-07-06T15:22:58;24.70;99.90
33023;DHT22;19390;51.460;5.710;2022-07-06T15:25:24;25.70;99.90
33023;DHT22;19390;51.460;5.710;2022-07-06T15:27:51;25.60;99.90
33023;DHT22;19390;51.460;5.710;2022-07-06T15:30:16;24.60;99.90
33023;DHT22;19390;51.460;5.710;2022-07-06T15:32:42;24.70;99.90
33023;DHT22;19390;51.460;5.710;2022-07-06T15:35:08;24.50;99.90
33023;DHT22;19390;51.460;5.710;2022-07-06T15:37:34;24.30;99.90
33023;DHT22;19390;51.460;5.710;2022-07-06T15:40:02;24.70;99.90
33023;DHT22;19390;51.460;5.710;2022-07-06T15:42:28;25.40;99.90
33023;DHT22;19390;51.460;5.710;2022-07-06T15:44:53;24.10;99.90
33023;DHT22;19390;51.460;5.710;2022-07-06T15:47:19;24.30;99.90
33023;DHT22;19390;51.460;5.710;2022-07-06T15:49:46;24.50;99.90
33023;DHT22;19390;51.460;5.710;2022-07-06T15:52:12;24.10;99.90
33023;DHT22;19390;51.460;5.710;2022-07-06T15:54:38;24.30;99.90
33023;DHT22;19390;51.460;5.710;2022-07-06T15:57:04;24.20;99.90
33023;DHT22;19390;51.460;5.710;2022-07-06T15:59:31;24.20;99.90
33023;DHT22;19390;51.460;5.710;2022-07-06T16:01:56;24.00;99.90